createdAt,value
2022-08-30T00:01:02.401Z,3.00
2022-08-30T00:03:30.503Z,3.00
2022-08-30T00:05:58.066Z,3.00
2022-08-30T00:08:25.493Z,3.00
2022-08-30T00:10:52.921Z,2.00
2022-08-30T00:13:22.216Z,2.00
2022-08-30T00:15:49.716Z,3.67
2022-08-30T00:18:18.186Z,3.00
2022-08-30T00:20:46.220Z,3.00
2022-08-30T00:23:13.954Z,3.00
2022-08-30T00:25:41.607Z,2.33
2022-08-30T00:28:09.647Z,2.33
2022-08-30T00:30:38.438Z,3.00
2022-08-30T00:33:05.921Z,3.00
2022-08-30T00:35:33.385Z,2.00
2022-08-30T00:38:00.837Z,2.33
2022-08-30T00:40:28.903Z,2.00
2022-08-30T00:42:59.263Z,2.00
2022-08-30T00:45:28.644Z,1.50
2022-08-30T00:47:57.499Z,2.00
2022-08-30T00:50:26.821Z,1.75
2022-08-30T00:52:54.817Z,2.00
2022-08-30T00:55:22.504Z,3.00
2022-08-30T00:57:49.922Z,2.00
2022-08-30T01:00:17.598Z,2.00
2022-08-30T01:02:45.085Z,2.00
2022-08-30T01:05:15.945Z,2.67
2022-08-30T01:07:43.694Z,3.00
2022-08-30T01:10:12.044Z,2.00
2022-08-30T01:12:39.614Z,1.00
2022-08-30T01:15:08.347Z,2.00
2022-08-30T01:17:35.865Z,2.00
2022-08-30T01:20:06.124Z,3.00
2022-08-30T01:22:37.344Z,3.00
2022-08-30T01:25:08.326Z,2.00
2022-08-30T01:27:37.090Z,2.00
2022-08-30T01:30:05.350Z,1.00
2022-08-30T01:32:32.784Z,2.00
2022-08-30T01:35:00.204Z,1.67
2022-08-30T01:37:29.658Z,3.00
2022-08-30T01:39:57.173Z,2.33
2022-08-30T01:42:25.949Z,1.67
2022-08-30T01:44:55.483Z,2.00
2022-08-30T01:47:22.936Z,3.00
2022-08-30T01:49:51.086Z,2.00
2022-08-30T01:52:18.509Z,1.33
2022-08-30T01:54:46.240Z,2.00
2022-08-30T01:57:15.742Z,1.33
2022-08-30T01:59:47.474Z,2.00
2022-08-30T02:02:15.901Z,1.33
2022-08-30T02:04:43.537Z,2.00
2022-08-30T02:07:11.380Z,1.33
2022-08-30T02:09:39.252Z,2.00
2022-08-30T02:12:07.608Z,1.33
2022-08-30T02:14:35.202Z,1.67
2022-08-30T02:17:04.203Z,1.33
2022-08-30T02:19:31.679Z,2.00
2022-08-30T02:21:59.113Z,2.00
2022-08-30T02:24:26.598Z,2.00
2022-08-30T02:26:54.196Z,2.00
2022-08-30T02:29:21.824Z,2.00
2022-08-30T02:31:49.367Z,2.00
2022-08-30T02:34:18.532Z,2.00
2022-08-30T02:36:46.056Z,2.00
2022-08-30T02:39:13.706Z,1.67
2022-08-30T02:41:41.170Z,1.50
2022-08-30T02:44:08.692Z,2.00
2022-08-30T02:46:37.288Z,1.00
2022-08-30T02:49:23.773Z,2.00
2022-08-30T02:51:53.518Z,2.00
2022-08-30T02:54:20.946Z,1.00
2022-08-30T02:56:48.589Z,2.00
2022-08-30T02:59:16.047Z,1.75
2022-08-30T03:01:43.635Z,2.00
2022-08-30T03:04:11.227Z,2.00
2022-08-30T03:06:38.665Z,2.00
2022-08-30T03:09:07.390Z,2.00
2022-08-30T03:11:34.811Z,2.00
2022-08-30T03:14:02.284Z,2.00
2022-08-30T03:16:29.908Z,2.00
2022-08-30T03:18:57.366Z,2.00
2022-08-30T03:21:24.806Z,2.67
2022-08-30T03:23:52.276Z,2.67
2022-08-30T03:26:20.992Z,1.50
2022-08-30T03:28:48.416Z,2.00
2022-08-30T03:31:15.917Z,2.00
2022-08-30T03:33:43.366Z,2.00
2022-08-30T03:36:10.851Z,2.00
2022-08-30T03:38:38.490Z,2.00
2022-08-30T03:41:06.489Z,1.75
2022-08-30T03:43:36.700Z,2.00
2022-08-30T03:46:04.215Z,3.00
2022-08-30T03:48:31.692Z,2.00
2022-08-30T03:50:59.167Z,2.00
2022-08-30T03:53:27.083Z,1.67
2022-08-30T03:55:54.892Z,2.00
2022-08-30T03:58:22.595Z,2.00
2022-08-30T04:00:51.377Z,1.00
2022-08-30T04:03:20.847Z,3.00
2022-08-30T04:05:48.286Z,1.33
2022-08-30T04:08:15.972Z,3.00
2022-08-30T04:10:43.411Z,2.00
2022-08-30T04:13:10.846Z,2.00
2022-08-30T04:15:38.280Z,2.00
2022-08-30T04:18:07.037Z,2.00
2022-08-30T04:20:34.532Z,2.00
2022-08-30T04:23:02.308Z,2.00
2022-08-30T04:25:29.746Z,2.00
2022-08-30T04:27:57.171Z,2.00
2022-08-30T04:30:24.642Z,1.25
2022-08-30T04:32:56.745Z,2.00
2022-08-30T04:35:27.337Z,3.00
2022-08-30T04:37:54.764Z,2.00
2022-08-30T04:40:23.058Z,1.00
2022-08-30T04:42:54.028Z,1.67
2022-08-30T04:45:21.533Z,3.67
2022-08-30T04:47:48.965Z,3.00
2022-08-30T04:50:18.501Z,3.00
2022-08-30T04:52:47.233Z,3.00
2022-08-30T04:55:19.873Z,2.67
2022-08-30T04:57:47.825Z,3.00
2022-08-30T05:00:15.965Z,0.33
2022-08-30T05:02:43.603Z,3.00
2022-08-30T05:05:28.797Z,3.00
2022-08-30T05:07:57.779Z,3.00
2022-08-30T05:10:26.400Z,3.25
2022-08-30T05:12:53.895Z,7.00
2022-08-30T05:15:22.290Z,7.75
2022-08-30T05:17:49.723Z,7.50
2022-08-30T05:20:17.197Z,7.25
2022-08-30T05:22:49.885Z,7.00
2022-08-30T05:25:23.317Z,7.75
2022-08-30T05:27:50.939Z,8.00
2022-08-30T05:30:18.466Z,10.00
2022-08-30T05:32:45.949Z,8.00
2022-08-30T05:35:13.938Z,9.00
2022-08-30T05:37:41.395Z,9.75
2022-08-30T05:40:11.151Z,10.50
2022-08-30T05:42:41.287Z,7.50
2022-08-30T05:45:09.544Z,7.50
2022-08-30T05:47:37.065Z,8.00
2022-08-30T05:50:06.866Z,7.50
2022-08-30T05:52:35.786Z,7.75
2022-08-30T05:55:04.218Z,7.00
2022-08-30T05:57:33.064Z,8.50
2022-08-30T06:00:02.205Z,6.75
2022-08-30T06:02:39.579Z,7.00
2022-08-30T06:05:07.263Z,7.75
2022-08-30T06:07:35.216Z,5.75
2022-08-30T06:10:02.745Z,6.00
2022-08-30T06:12:30.211Z,6.00
2022-08-30T06:14:57.647Z,6.25
2022-08-30T06:17:26.607Z,5.25
2022-08-30T06:19:54.097Z,5.00
2022-08-30T06:22:21.541Z,5.00
2022-08-30T06:24:57.866Z,6.25
2022-08-30T06:27:25.883Z,5.33
2022-08-30T06:29:53.513Z,6.00
2022-08-30T06:32:20.983Z,6.25
2022-08-30T06:34:49.730Z,6.00
2022-08-30T06:37:21.976Z,6.25
2022-08-30T06:39:57.953Z,4.75
2022-08-30T06:42:30.610Z,5.00
2022-08-30T06:44:58.292Z,5.50
2022-08-30T06:47:25.795Z,5.25
2022-08-30T06:49:54.508Z,5.67
2022-08-30T06:52:22.505Z,5.75
2022-08-30T06:54:50.335Z,4.50
2022-08-30T06:57:18.678Z,5.00
2022-08-30T06:59:46.097Z,6.00
2022-08-30T07:02:13.701Z,5.00
2022-08-30T07:04:41.183Z,6.00
2022-08-30T07:07:11.062Z,5.75
2022-08-30T07:09:43.114Z,5.25
2022-08-30T07:12:10.971Z,5.00
2022-08-30T07:14:38.577Z,6.00
2022-08-30T07:17:28.353Z,6.25
2022-08-30T07:19:57.783Z,6.00
2022-08-30T07:22:26.532Z,5.75
2022-08-30T07:24:53.947Z,4.00
2022-08-30T07:27:21.895Z,5.00
2022-08-30T07:29:49.890Z,5.00
2022-08-30T07:32:17.473Z,5.50
2022-08-30T07:34:44.971Z,5.75
2022-08-30T07:37:18.007Z,5.00
2022-08-30T07:39:48.042Z,5.33
2022-08-30T07:42:15.818Z,6.00
2022-08-30T07:44:43.728Z,6.50
2022-08-30T07:47:11.244Z,5.00
2022-08-30T07:49:38.828Z,5.25
2022-08-30T07:52:06.326Z,6.25
2022-08-30T07:54:33.883Z,5.00
2022-08-30T07:57:02.684Z,5.25
2022-08-30T07:59:32.987Z,6.00
2022-08-30T08:02:03.235Z,5.25
2022-08-30T08:04:31.557Z,5.75
2022-08-30T08:06:59.036Z,5.00
2022-08-30T08:09:26.524Z,5.00
2022-08-30T08:11:54.039Z,5.00
2022-08-30T08:14:23.679Z,5.00
2022-08-30T08:16:51.276Z,5.75
2022-08-30T08:19:19.573Z,7.00
2022-08-30T08:21:48.626Z,6.00
2022-08-30T08:24:17.892Z,5.25
2022-08-30T08:26:45.614Z,3.00
2022-08-30T08:29:13.143Z,5.75
2022-08-30T08:31:42.078Z,5.00
2022-08-30T08:34:11.540Z,5.00
2022-08-30T08:36:39.041Z,4.50
2022-08-30T08:39:07.070Z,4.00
2022-08-30T08:41:41.870Z,6.00
2022-08-30T08:44:12.957Z,6.00
2022-08-30T08:46:45.599Z,4.00
2022-08-30T08:49:13.271Z,6.00
2022-08-30T08:51:57.815Z,5.00
2022-08-30T08:54:26.452Z,5.00
2022-08-30T08:56:54.390Z,5.00
2022-08-30T08:59:21.938Z,5.25
2022-08-30T09:01:51.017Z,5.00
2022-08-30T09:04:21.374Z,6.00
2022-08-30T09:06:51.875Z,5.25
2022-08-30T09:09:20.590Z,4.25
2022-08-30T09:11:48.104Z,4.25
2022-08-30T09:14:19.074Z,5.25
2022-08-30T09:16:53.511Z,6.00
2022-08-30T09:19:35.662Z,5.00
2022-08-30T09:22:05.409Z,6.00
2022-08-30T09:24:43.998Z,5.00
2022-08-30T09:27:16.474Z,5.75
2022-08-30T09:30:00.056Z,5.75
2022-08-30T09:32:31.010Z,5.00
2022-08-30T09:34:58.614Z,5.00
2022-08-30T09:37:31.663Z,6.00
2022-08-30T09:39:59.451Z,6.00
2022-08-30T09:42:28.825Z,4.75
2022-08-30T09:45:10.272Z,6.33
2022-08-30T09:47:41.039Z,4.67
2022-08-30T09:50:10.356Z,5.00
2022-08-30T09:52:43.325Z,5.75
2022-08-30T09:55:17.807Z,5.00
2022-08-30T09:57:52.423Z,4.33
2022-08-30T10:00:21.306Z,5.50
2022-08-30T10:02:57.455Z,4.75
2022-08-30T10:05:28.045Z,5.50
2022-08-30T10:08:00.161Z,4.00
2022-08-30T10:10:31.415Z,5.00
2022-08-30T10:13:07.220Z,5.00
2022-08-30T10:15:35.958Z,5.33
2022-08-30T10:18:08.568Z,4.50
2022-08-30T10:20:39.754Z,3.67
2022-08-30T10:23:09.208Z,4.00
2022-08-30T10:25:39.259Z,4.00
2022-08-30T10:28:10.860Z,2.00
2022-08-30T10:30:39.874Z,3.00
2022-08-30T10:33:09.814Z,4.00
2022-08-30T10:35:39.108Z,3.67
2022-08-30T10:38:09.013Z,1.00
2022-08-30T10:40:56.311Z,2.50
2022-08-30T10:43:26.520Z,3.00
2022-08-30T10:45:57.266Z,2.00
2022-08-30T10:48:27.504Z,2.50
2022-08-30T10:50:56.843Z,3.25
2022-08-30T10:53:29.159Z,1.50
2022-08-30T10:56:00.316Z,2.00
2022-08-30T10:58:28.745Z,3.00
2022-08-30T11:01:01.727Z,3.00
2022-08-30T11:03:54.678Z,2.00
2022-08-30T11:06:22.839Z,2.00
2022-08-30T11:09:15.604Z,2.00
2022-08-30T11:11:53.597Z,2.67
2022-08-30T11:14:21.178Z,1.00
2022-08-30T11:16:54.056Z,1.33
2022-08-30T11:19:26.161Z,1.00
2022-08-30T11:21:54.033Z,0.67
2022-08-30T11:24:22.245Z,1.00
2022-08-30T11:27:00.873Z,1.67
2022-08-30T11:29:33.587Z,1.00
2022-08-30T11:32:20.696Z,1.00
2022-08-30T11:34:57.391Z,1.00
2022-08-30T11:37:35.914Z,1.00
2022-08-30T11:40:06.839Z,1.00
2022-08-30T11:42:42.901Z,0.67
2022-08-30T11:45:45.339Z,1.33
2022-08-30T11:48:53.527Z,1.00
2022-08-30T11:51:44.830Z,1.00
2022-08-30T11:54:18.894Z,1.00
2022-08-30T11:56:50.738Z,0.00
2022-08-30T11:59:25.522Z,5.50
2022-08-30T12:01:53.041Z,4.67
2022-08-30T12:04:28.740Z,8.25
2022-08-30T12:06:59.761Z,5.50
2022-08-30T12:10:06.639Z,7.00
2022-08-30T12:12:53.560Z,7.00
2022-08-30T12:15:43.085Z,7.50
2022-08-30T12:18:29.749Z,7.25
2022-08-30T12:21:00.591Z,6.67
2022-08-30T12:23:35.731Z,7.00
2022-08-30T12:26:14.222Z,5.00
2022-08-30T12:28:43.065Z,5.75
2022-08-30T12:31:11.810Z,6.67
2022-08-30T12:33:42.064Z,5.00
2022-08-30T12:36:13.531Z,5.00
2022-08-30T12:38:42.744Z,6.00
2022-08-30T12:41:15.046Z,7.00
2022-08-30T12:43:49.311Z,4.33
2022-08-30T12:46:17.431Z,4.00
2022-08-30T12:48:44.966Z,4.00
2022-08-30T12:51:27.356Z,5.00
2022-08-30T12:54:03.681Z,3.00
2022-08-30T12:56:50.404Z,2.67
2022-08-30T12:59:40.909Z,3.00
2022-08-30T13:02:20.297Z,3.00
2022-08-30T13:04:48.696Z,3.00
2022-08-30T13:07:30.804Z,3.00
2022-08-30T13:10:04.476Z,3.00
2022-08-30T13:12:31.903Z,3.00
2022-08-30T13:15:19.044Z,2.00
2022-08-30T13:17:47.639Z,2.25
2022-08-30T13:20:25.724Z,1.75
2022-08-30T13:23:04.813Z,1.75
2022-08-30T13:25:33.682Z,0.75
2022-08-30T13:28:01.600Z,1.50
2022-08-30T13:30:29.122Z,0.00
2022-08-30T13:32:56.778Z,1.00
2022-08-30T13:35:24.194Z,1.50
2022-08-30T13:37:52.094Z,1.00
2022-08-30T13:40:20.564Z,1.00
2022-08-30T13:42:49.441Z,1.25
2022-08-30T13:48:05.077Z,1.00
2022-08-30T13:50:33.923Z,0.33
2022-08-30T13:53:01.365Z,0.25
2022-08-30T13:55:29.034Z,1.00
2022-08-30T13:57:58.040Z,1.00
2022-08-30T14:00:25.775Z,1.00
2022-08-30T14:02:55.919Z,0.33
2022-08-30T14:05:47.712Z,0.33
2022-08-30T14:11:00.594Z,0.33
2022-08-30T14:13:29.716Z,1.00
2022-08-30T14:18:44.857Z,0.67
2022-08-30T14:21:12.777Z,1.00
2022-08-30T14:23:40.232Z,1.00
2022-08-30T14:26:11.929Z,0.33
2022-08-30T14:28:41.965Z,0.00
2022-08-30T14:31:10.839Z,0.00
2022-08-30T14:33:38.318Z,0.00
2022-08-30T14:36:09.723Z,1.00
2022-08-30T14:38:40.472Z,0.00
2022-08-30T14:41:10.714Z,0.00
2022-08-30T14:43:40.176Z,1.00
2022-08-30T14:46:10.039Z,1.00
2022-08-30T14:48:37.837Z,1.00
2022-08-30T14:51:12.544Z,1.00
2022-08-30T14:53:40.009Z,0.25
2022-08-30T14:56:09.124Z,1.50
2022-08-30T14:58:36.555Z,0.25
2022-08-30T15:01:09.646Z,0.75
2022-08-30T15:03:37.146Z,1.75
2022-08-30T15:06:04.795Z,1.00
2022-08-30T15:08:32.212Z,1.00
2022-08-30T15:11:01.183Z,0.75
2022-08-30T15:13:29.569Z,1.75
2022-08-30T15:15:57.527Z,0.00
2022-08-30T15:18:26.416Z,0.00
2022-08-30T15:20:53.886Z,1.50
2022-08-30T15:23:24.869Z,1.67
2022-08-30T15:25:52.517Z,2.33
2022-08-30T15:28:19.932Z,1.00
2022-08-30T15:30:47.350Z,2.00
2022-08-30T15:33:15.097Z,1.67
2022-08-30T15:35:43.860Z,2.00
2022-08-30T15:38:12.449Z,0.67
2022-08-30T15:40:40.160Z,1.00
2022-08-30T15:43:07.708Z,1.00
2022-08-30T15:45:35.162Z,1.67
2022-08-30T15:48:02.742Z,1.67
2022-08-30T15:50:30.884Z,1.50
2022-08-30T15:52:59.593Z,0.50
2022-08-30T15:55:28.156Z,2.33
2022-08-30T15:57:55.832Z,0.67
2022-08-30T16:00:23.247Z,1.67
2022-08-30T16:02:52.009Z,1.00
2022-08-30T16:05:21.260Z,0.00
2022-08-30T16:07:48.733Z,1.67
2022-08-30T16:10:19.372Z,0.33
2022-08-30T16:12:46.796Z,1.33
2022-08-30T16:15:14.628Z,0.67
2022-08-30T16:17:42.070Z,1.00
2022-08-30T16:20:11.813Z,0.67
2022-08-30T16:22:39.446Z,0.67
2022-08-30T16:25:13.423Z,0.67
2022-08-30T16:27:43.028Z,0.67
2022-08-30T16:30:11.624Z,1.00
2022-08-30T16:32:39.789Z,1.33
2022-08-30T16:35:08.741Z,0.33
2022-08-30T16:37:36.839Z,0.33
2022-08-30T16:40:04.900Z,1.25
2022-08-30T16:42:32.968Z,0.75
2022-08-30T16:45:02.606Z,0.33
2022-08-30T16:47:37.969Z,1.50
2022-08-30T16:50:06.618Z,0.00
2022-08-30T16:52:34.049Z,1.00
2022-08-30T16:55:01.837Z,1.00
2022-08-30T16:57:29.256Z,1.00
2022-08-30T16:59:57.268Z,1.67
2022-08-30T17:02:26.033Z,1.67
2022-08-30T17:04:55.232Z,0.00
2022-08-30T17:07:22.770Z,1.33
2022-08-30T17:09:50.409Z,0.33
2022-08-30T17:12:17.977Z,1.33
2022-08-30T17:14:45.818Z,1.33
2022-08-30T17:17:14.975Z,1.33
2022-08-30T17:19:44.772Z,0.75
2022-08-30T17:22:12.879Z,1.00
2022-08-30T17:24:40.860Z,1.33
2022-08-30T17:27:08.458Z,1.00
2022-08-30T17:29:35.976Z,2.00
2022-08-30T17:32:04.410Z,1.00
2022-08-30T17:34:32.250Z,1.67
2022-08-30T17:37:01.496Z,1.67
2022-08-30T17:39:29.549Z,1.50
2022-08-30T17:41:57.375Z,1.25
2022-08-30T17:44:28.374Z,1.25
2022-08-30T17:46:56.288Z,1.75
2022-08-30T17:49:24.017Z,1.75
2022-08-30T17:51:56.286Z,2.25
2022-08-30T17:54:25.697Z,1.75
2022-08-30T17:56:53.630Z,1.75
2022-08-30T17:59:24.893Z,1.75
2022-08-30T18:01:53.153Z,2.00
2022-08-30T18:04:20.756Z,2.00
2022-08-30T18:06:48.200Z,1.50
2022-08-30T18:09:16.634Z,1.75
2022-08-30T18:11:45.342Z,1.00
2022-08-30T18:14:12.969Z,2.50
2022-08-30T18:16:49.622Z,1.75
2022-08-30T18:19:21.713Z,1.00
2022-08-30T18:21:49.307Z,2.00
2022-08-30T18:24:16.755Z,1.25
2022-08-30T18:26:46.450Z,1.25
2022-08-30T18:29:13.923Z,1.75
2022-08-30T18:31:41.766Z,2.33
2022-08-30T18:34:12.409Z,1.67
2022-08-30T18:36:40.242Z,2.00
2022-08-30T18:39:08.808Z,1.33
2022-08-30T18:41:42.205Z,1.67
2022-08-30T18:44:29.337Z,0.33
2022-08-30T18:46:57.465Z,1.33
2022-08-30T18:49:24.914Z,1.67
2022-08-30T18:51:52.340Z,1.67
2022-08-30T18:54:19.768Z,1.25
2022-08-30T18:56:47.201Z,1.67
2022-08-30T18:59:14.706Z,2.33
2022-08-30T19:01:44.270Z,1.67
2022-08-30T19:04:15.761Z,1.00
2022-08-30T19:06:57.001Z,2.00
2022-08-30T19:09:24.412Z,1.33
2022-08-30T19:11:54.105Z,2.67
2022-08-30T19:14:21.949Z,1.67
2022-08-30T19:16:50.696Z,4.00
2022-08-30T19:19:18.619Z,3.00
2022-08-30T19:21:46.048Z,4.00
2022-08-30T19:24:13.505Z,3.00
2022-08-30T19:26:46.691Z,4.00
2022-08-30T19:29:15.071Z,5.00
2022-08-30T19:31:43.627Z,4.67
2022-08-30T19:34:12.829Z,5.00
2022-08-30T19:36:40.344Z,5.00
2022-08-30T19:39:07.879Z,4.25
2022-08-30T19:41:35.392Z,4.75
2022-08-30T19:44:03.175Z,3.00
2022-08-30T19:46:30.897Z,3.75
2022-08-30T19:49:00.955Z,4.25
2022-08-30T19:51:29.690Z,5.25
2022-08-30T19:53:59.109Z,5.25
2022-08-30T19:56:26.673Z,5.00
2022-08-30T19:58:54.697Z,4.00
2022-08-30T20:01:33.101Z,5.00
2022-08-30T20:04:01.755Z,5.33
2022-08-30T20:06:30.697Z,5.00
2022-08-30T20:08:58.468Z,2.00
2022-08-30T20:11:27.925Z,5.50
2022-08-30T20:13:55.398Z,5.00
2022-08-30T20:16:29.986Z,4.00
2022-08-30T20:19:05.161Z,4.00
2022-08-30T20:21:34.973Z,4.00
2022-08-30T20:24:03.315Z,3.75
2022-08-30T20:26:33.954Z,5.00
2022-08-30T20:29:02.461Z,4.00
2022-08-30T20:31:30.041Z,5.00
2022-08-30T20:33:57.635Z,4.75
2022-08-30T20:36:25.153Z,4.00
2022-08-30T20:38:53.863Z,5.00
2022-08-30T20:41:21.330Z,4.25
2022-08-30T20:43:50.361Z,3.75
2022-08-30T20:46:19.272Z,5.00
2022-08-30T20:48:46.837Z,5.00
2022-08-30T20:51:16.200Z,5.00
2022-08-30T20:53:43.660Z,4.33
2022-08-30T20:56:13.504Z,4.67
2022-08-30T20:58:40.954Z,5.00
2022-08-30T21:01:08.666Z,4.33
2022-08-30T21:03:36.879Z,4.00
2022-08-30T21:06:04.551Z,4.33
2022-08-30T21:08:32.433Z,4.00
2022-08-30T21:10:59.938Z,4.00
2022-08-30T21:13:28.666Z,4.00
2022-08-30T21:16:00.428Z,3.00
2022-08-30T21:18:32.686Z,4.00
2022-08-30T21:21:00.436Z,2.67
2022-08-30T21:23:27.854Z,5.00
2022-08-30T21:25:56.250Z,4.00
2022-08-30T21:28:23.682Z,5.00
2022-08-30T21:30:52.524Z,6.75
2022-08-30T21:33:20.042Z,6.00
2022-08-30T21:36:05.502Z,6.33
2022-08-30T21:38:33.007Z,6.00
2022-08-30T21:41:00.464Z,5.33
2022-08-30T21:43:27.889Z,6.00
2022-08-30T21:45:56.631Z,6.00
2022-08-30T21:48:24.115Z,6.00
2022-08-30T21:50:51.539Z,6.67
2022-08-30T21:53:19.246Z,6.75
2022-08-30T21:55:48.045Z,7.00
2022-08-30T21:58:15.857Z,5.00
2022-08-30T22:00:43.307Z,5.25
2022-08-30T22:03:12.428Z,6.50
2022-08-30T22:05:40.749Z,4.33
2022-08-30T22:08:08.191Z,5.00
2022-08-30T22:10:35.639Z,4.67
2022-08-30T22:13:03.638Z,5.75
2022-08-30T22:15:31.348Z,5.33
2022-08-30T22:18:00.549Z,4.75
2022-08-30T22:20:30.334Z,5.00
2022-08-30T22:22:58.143Z,5.00
2022-08-30T22:25:25.575Z,4.00
2022-08-30T22:27:53.008Z,4.33
2022-08-30T22:30:20.521Z,4.00
2022-08-30T22:32:48.004Z,5.00
2022-08-30T22:35:16.037Z,5.00
2022-08-30T22:37:47.758Z,6.00
2022-08-30T22:40:21.464Z,5.33
2022-08-30T22:42:49.064Z,5.00
2022-08-30T22:45:16.496Z,4.25
2022-08-30T22:47:43.925Z,4.67
2022-08-30T22:50:13.047Z,4.75
2022-08-30T22:52:41.014Z,4.25
2022-08-30T22:55:10.002Z,4.75
2022-08-30T22:57:37.424Z,4.75
2022-08-30T23:00:05.676Z,5.00
2022-08-30T23:02:34.609Z,3.00
2022-08-30T23:05:02.192Z,4.25
2022-08-30T23:07:29.652Z,4.75
2022-08-30T23:09:59.055Z,4.75
2022-08-30T23:12:27.889Z,4.25
2022-08-30T23:14:55.380Z,4.00
2022-08-30T23:17:23.485Z,3.33
2022-08-30T23:19:50.924Z,4.33
2022-08-30T23:22:18.352Z,4.00
2022-08-30T23:25:03.844Z,3.00
2022-08-30T23:27:58.928Z,3.67
2022-08-30T23:30:44.319Z,3.67
2022-08-30T23:33:28.989Z,4.00
2022-08-30T23:36:13.791Z,4.00
2022-08-30T23:38:59.043Z,3.33
2022-08-30T23:41:43.894Z,1.00
2022-08-30T23:44:30.487Z,3.00
2022-08-30T23:47:15.343Z,3.00
2022-08-30T23:50:00.717Z,3.00
2022-08-30T23:52:46.310Z,3.25
2022-08-30T23:55:31.623Z,3.00
2022-08-30T23:58:16.538Z,3.00
